CheckWX is a tool to help pilots better visualize weather data.  It is not intended as a substitute for an official pre-flight weather briefing.

05:16:22 UTC

CYPD METAR
Port Hawkesbury Airport
Port Hawkesbury, Canada
Current

16 mins ago

CYPD 240500Z AUTO 30006KT 9SM CLR M14/M17 A3024 RMK SLP252
Observed
Feb-24 @ 05:00 UTC
Wind
  • 300° at 6 KTS
Visibility
9 SM
Flight Rules
VFR
Cloud Levels
  • Clear skies
Temperature
-14°C / 7°F
Dewpoint
-17°C / 1°F
Humidity
78%
Altimeter
30.24" Hg
Pressure
1025.2 hPa
Previous

1 hour ago

CYPD 240403Z AUTO 31006KT 290V020 9SM SCT019 M11/M15 A3021 RMK SLP242
Observed
Feb-24 @ 04:03 UTC
Wind
  • 310° at 6 KTS
Visibility
9 SM
Flight Rules
VFR
Cloud Levels
  • Scattered at 1,900' AGL
Temperature
-11°C / 12°F
Dewpoint
-15°C / 5°F
Humidity
73%
Altimeter
30.21" Hg
Pressure
1024.2 hPa
Previous

2 hours ago

CYPD 240300Z AUTO 29006KT 9SM CLR M14/M17 A3020 RMK SLP238
Observed
Feb-24 @ 03:00 UTC
Wind
  • 290° at 6 KTS
Visibility
9 SM
Flight Rules
VFR
Cloud Levels
  • Clear skies
Temperature
-14°C / 7°F
Dewpoint
-17°C / 1°F
Humidity
78%
Altimeter
30.2" Hg
Pressure
1023.8 hPa